createdAt,value
2022-12-15T00:00:56.408Z,34.97
2022-12-15T00:02:28.334Z,35.20
2022-12-15T00:04:00.216Z,36.16
2022-12-15T00:05:31.767Z,38.24
2022-12-15T00:07:03.774Z,35.31
2022-12-15T00:08:35.434Z,40.55
2022-12-15T00:10:07.000Z,36.41
2022-12-15T00:11:38.320Z,38.11
2022-12-15T00:13:09.936Z,40.21
2022-12-15T00:14:41.410Z,34.34
2022-12-15T00:16:12.967Z,36.94
2022-12-15T00:17:44.576Z,38.06
2022-12-15T00:19:16.026Z,39.78
2022-12-15T00:20:47.264Z,36.37
2022-12-15T00:22:18.573Z,39.90
2022-12-15T00:23:50.052Z,40.51
2022-12-15T00:25:45.016Z,37.87
2022-12-15T00:27:16.507Z,38.89
2022-12-15T00:28:48.053Z,39.34
2022-12-15T00:30:19.578Z,38.18
2022-12-15T00:31:51.108Z,39.63
2022-12-15T00:33:22.563Z,38.60
2022-12-15T00:34:54.098Z,36.98
2022-12-15T00:36:25.551Z,38.95
2022-12-15T00:37:56.918Z,40.36
2022-12-15T00:39:28.437Z,40.35
2022-12-15T00:40:59.995Z,41.00
2022-12-15T00:42:31.529Z,41.31
2022-12-15T00:44:03.038Z,44.65
2022-12-15T00:45:34.316Z,43.76
2022-12-15T00:47:10.676Z,44.49
2022-12-15T00:48:41.843Z,41.18
2022-12-15T00:50:13.173Z,38.52
2022-12-15T00:51:44.466Z,41.45
2022-12-15T00:53:16.061Z,44.23
2022-12-15T00:54:47.665Z,41.32
2022-12-15T00:56:19.356Z,44.28
2022-12-15T00:57:50.743Z,42.20
2022-12-15T00:59:22.288Z,42.89
2022-12-15T01:00:53.999Z,44.53
2022-12-15T01:02:25.882Z,42.83
2022-12-15T01:03:57.886Z,42.39
2022-12-15T01:05:30.576Z,42.89
2022-12-15T01:07:02.296Z,42.51
2022-12-15T01:08:33.654Z,40.40
2022-12-15T01:10:05.159Z,39.65
2022-12-15T01:11:36.717Z,42.16
2022-12-15T01:13:08.334Z,44.05
2022-12-15T01:14:40.069Z,42.55
2022-12-15T01:16:11.713Z,41.37
2022-12-15T01:17:42.953Z,43.07
2022-12-15T01:19:14.372Z,43.15
2022-12-15T01:20:46.020Z,43.73
2022-12-15T01:22:17.571Z,40.00
2022-12-15T01:23:49.246Z,38.83
2022-12-15T01:25:20.654Z,39.86
2022-12-15T01:26:52.107Z,40.83
2022-12-15T01:28:23.423Z,43.43
2022-12-15T01:29:55.129Z,43.22
2022-12-15T01:31:26.661Z,43.93
2022-12-15T01:32:58.154Z,44.89
2022-12-15T01:34:29.632Z,43.27
2022-12-15T01:36:01.328Z,41.78
2022-12-15T01:37:32.742Z,40.65
2022-12-15T01:39:04.499Z,40.63
2022-12-15T01:40:36.353Z,44.10
2022-12-15T01:42:07.926Z,41.37
2022-12-15T01:43:39.501Z,39.46
2022-12-15T01:45:11.178Z,40.49
2022-12-15T01:46:44.028Z,41.43
2022-12-15T01:48:15.616Z,40.14
2022-12-15T01:49:47.336Z,41.45
2022-12-15T01:51:20.853Z,41.29
2022-12-15T01:52:52.300Z,40.13
2022-12-15T01:54:23.824Z,39.18
2022-12-15T01:55:55.062Z,41.24
2022-12-15T01:57:26.627Z,39.92
2022-12-15T01:58:58.037Z,40.46
2022-12-15T02:00:29.759Z,37.97
2022-12-15T02:02:01.776Z,40.72
2022-12-15T02:03:33.597Z,39.85
2022-12-15T02:05:05.454Z,38.98
2022-12-15T02:06:37.003Z,41.87
2022-12-15T02:08:08.521Z,42.56
2022-12-15T02:09:40.186Z,37.46
2022-12-15T02:11:11.603Z,39.21
2022-12-15T02:12:42.928Z,38.64
2022-12-15T02:14:14.461Z,41.66
2022-12-15T02:15:45.895Z,37.47
2022-12-15T02:17:17.659Z,39.40
2022-12-15T02:18:49.165Z,38.77
2022-12-15T02:20:20.480Z,38.05
2022-12-15T02:21:51.905Z,38.61
2022-12-15T02:23:23.249Z,40.06
2022-12-15T02:24:55.135Z,38.00
2022-12-15T02:26:26.883Z,35.74
2022-12-15T02:27:58.452Z,35.82
2022-12-15T02:29:29.847Z,37.68
2022-12-15T02:31:01.284Z,39.48
2022-12-15T02:32:42.728Z,41.45
2022-12-15T02:34:19.065Z,41.52
2022-12-15T02:35:50.395Z,39.75
2022-12-15T02:37:21.641Z,42.63
2022-12-15T02:38:53.139Z,41.40
2022-12-15T02:40:24.719Z,38.67
2022-12-15T02:41:56.358Z,39.68
2022-12-15T02:43:28.868Z,37.94
2022-12-15T02:45:00.513Z,38.54
2022-12-15T02:46:32.073Z,37.24
2022-12-15T02:48:03.400Z,39.64
2022-12-15T02:49:35.010Z,37.36
2022-12-15T02:51:07.438Z,39.81
2022-12-15T02:52:38.803Z,38.25
2022-12-15T02:54:10.595Z,36.59
2022-12-15T02:55:42.243Z,39.86
2022-12-15T02:57:13.905Z,38.44
2022-12-15T02:58:45.339Z,38.46
2022-12-15T03:00:16.955Z,37.31
2022-12-15T03:01:48.738Z,37.97
2022-12-15T03:03:21.702Z,35.18
2022-12-15T03:04:53.268Z,36.93
2022-12-15T03:06:24.909Z,36.67
2022-12-15T03:07:56.654Z,35.51
2022-12-15T03:09:27.967Z,38.20
2022-12-15T03:10:59.682Z,37.38
2022-12-15T03:12:31.312Z,34.35
2022-12-15T03:14:02.818Z,33.45
2022-12-15T03:15:35.793Z,37.10
2022-12-15T03:17:07.521Z,35.39
2022-12-15T03:18:39.105Z,38.28
2022-12-15T03:20:10.735Z,36.28
2022-12-15T03:21:42.312Z,37.76
2022-12-15T03:23:14.007Z,37.38
2022-12-15T03:24:45.567Z,38.54
2022-12-15T03:26:17.304Z,36.78
2022-12-15T03:27:48.938Z,37.47
2022-12-15T03:29:20.589Z,37.23
2022-12-15T03:30:52.083Z,33.94
2022-12-15T03:32:24.428Z,35.72
2022-12-15T03:33:55.870Z,35.41
2022-12-15T03:35:27.250Z,36.64
2022-12-15T03:36:58.807Z,36.92
2022-12-15T03:38:30.446Z,33.70
2022-12-15T03:40:02.132Z,35.80
2022-12-15T03:41:33.596Z,36.18
2022-12-15T03:43:04.981Z,34.73
2022-12-15T03:44:36.477Z,35.30
2022-12-15T03:46:08.161Z,34.89
2022-12-15T03:47:39.938Z,37.07
2022-12-15T03:49:11.713Z,34.60
2022-12-15T03:50:43.639Z,33.76
2022-12-15T03:52:14.842Z,37.64
2022-12-15T03:53:46.350Z,37.77
2022-12-15T03:55:18.877Z,36.94
2022-12-15T03:56:50.605Z,35.92
2022-12-15T03:58:22.040Z,37.51
2022-12-15T03:59:53.520Z,35.28
2022-12-15T04:01:25.156Z,35.19
2022-12-15T04:02:57.273Z,37.15
2022-12-15T04:04:29.211Z,36.71
2022-12-15T04:06:00.742Z,37.34
2022-12-15T04:07:32.264Z,36.92
2022-12-15T04:09:03.848Z,35.49
2022-12-15T04:10:35.441Z,36.80
2022-12-15T04:12:07.164Z,34.54
2022-12-15T04:13:38.910Z,33.44
2022-12-15T04:15:10.911Z,34.29
2022-12-15T04:16:42.499Z,33.83
2022-12-15T04:18:14.444Z,34.06
2022-12-15T04:19:45.947Z,35.28
2022-12-15T04:21:17.580Z,34.35
2022-12-15T04:22:48.932Z,33.96
2022-12-15T04:24:20.151Z,37.76
2022-12-15T04:25:51.382Z,36.42
2022-12-15T04:27:22.971Z,35.23
2022-12-15T04:28:54.742Z,34.30
2022-12-15T04:30:46.118Z,35.44
2022-12-15T04:32:18.102Z,34.10
2022-12-15T04:33:54.421Z,36.07
2022-12-15T04:35:25.862Z,35.56
2022-12-15T04:36:57.401Z,33.85
2022-12-15T04:38:29.064Z,35.47
2022-12-15T04:40:00.486Z,34.57
2022-12-15T04:41:32.434Z,33.98
2022-12-15T04:43:04.162Z,33.30
2022-12-15T04:44:35.456Z,35.01
2022-12-15T04:46:07.131Z,36.12
2022-12-15T04:47:54.643Z,33.52
2022-12-15T04:49:26.072Z,35.28
2022-12-15T04:51:25.259Z,33.69
2022-12-15T04:52:57.913Z,34.38
2022-12-15T04:54:45.689Z,32.70
2022-12-15T04:56:18.619Z,33.65
2022-12-15T04:57:50.752Z,34.31
2022-12-15T04:59:22.506Z,33.21
2022-12-15T05:00:54.171Z,32.36
2022-12-15T05:02:25.708Z,32.83
2022-12-15T05:04:02.149Z,33.04
2022-12-15T05:05:33.549Z,35.09
2022-12-15T05:07:04.960Z,31.65
2022-12-15T05:08:36.388Z,31.84
2022-12-15T05:10:15.101Z,33.78
2022-12-15T05:11:47.170Z,32.61
2022-12-15T05:13:19.372Z,31.83
2022-12-15T05:14:50.805Z,31.93
2022-12-15T05:16:22.719Z,33.84
2022-12-15T05:17:54.688Z,31.43
2022-12-15T05:19:26.336Z,34.00
2022-12-15T05:21:11.108Z,32.85
2022-12-15T05:22:42.668Z,33.53
2022-12-15T05:24:14.080Z,32.79
2022-12-15T05:26:11.737Z,30.97
2022-12-15T05:27:48.646Z,31.74
2022-12-15T05:29:19.948Z,34.19
2022-12-15T05:30:51.553Z,33.45
2022-12-15T05:34:24.206Z,33.82
2022-12-15T05:35:55.842Z,32.19
2022-12-15T05:37:28.330Z,32.85
2022-12-15T05:39:19.704Z,33.31
2022-12-15T05:40:51.179Z,33.31
2022-12-15T05:42:22.378Z,31.91
2022-12-15T05:43:54.026Z,30.41
2022-12-15T05:45:31.363Z,31.95
2022-12-15T05:47:07.732Z,32.31
2022-12-15T05:48:39.186Z,29.92
2022-12-15T05:50:10.553Z,30.60
2022-12-15T05:51:42.091Z,30.43
2022-12-15T05:53:13.437Z,32.51
2022-12-15T05:54:45.089Z,30.11
2022-12-15T05:56:16.880Z,31.69
2022-12-15T05:57:48.964Z,30.90
2022-12-15T05:59:20.651Z,32.73
2022-12-15T06:00:51.956Z,32.72
2022-12-15T06:02:23.375Z,32.37
2022-12-15T06:03:54.811Z,33.48
2022-12-15T06:05:26.343Z,29.64
2022-12-15T06:06:58.919Z,30.03
2022-12-15T06:08:30.503Z,27.92
2022-12-15T06:10:01.871Z,27.75
2022-12-15T06:11:33.156Z,30.06
2022-12-15T06:13:05.039Z,31.77
2022-12-15T06:14:36.448Z,32.13
2022-12-15T06:16:07.835Z,31.60
2022-12-15T06:17:39.358Z,30.54
2022-12-15T06:19:21.720Z,32.19
2022-12-15T06:20:54.212Z,33.44
2022-12-15T06:22:30.642Z,34.45
2022-12-15T06:24:02.127Z,40.58
2022-12-15T06:25:33.524Z,47.09
2022-12-15T06:27:04.946Z,42.45
2022-12-15T06:28:36.397Z,41.33
2022-12-15T06:30:07.902Z,35.79
2022-12-15T06:31:39.442Z,37.85
2022-12-15T06:33:36.658Z,39.50
2022-12-15T06:35:08.159Z,38.71
2022-12-15T06:36:39.913Z,36.13
2022-12-15T06:38:11.253Z,35.04
2022-12-15T06:39:42.601Z,33.94
2022-12-15T06:41:14.141Z,37.04
2022-12-15T06:42:45.655Z,37.00
2022-12-15T06:44:17.111Z,35.78
2022-12-15T06:45:48.338Z,33.83
2022-12-15T06:47:21.535Z,33.83
2022-12-15T06:48:53.003Z,33.95
2022-12-15T06:50:24.522Z,33.69
2022-12-15T06:51:56.241Z,34.93
2022-12-15T06:53:27.756Z,35.12
2022-12-15T06:54:59.496Z,37.47
2022-12-15T06:56:33.485Z,38.46
2022-12-15T06:58:05.930Z,35.90
2022-12-15T06:59:37.835Z,37.49
2022-12-15T07:01:09.477Z,36.85
2022-12-15T07:02:41.435Z,35.11
2022-12-15T07:04:13.174Z,36.22
2022-12-15T07:05:44.793Z,35.10
2022-12-15T07:07:16.120Z,36.61
2022-12-15T07:08:47.779Z,35.29
2022-12-15T07:10:31.181Z,37.23
2022-12-15T07:12:02.594Z,35.65
2022-12-15T07:13:39.244Z,32.53
2022-12-15T07:15:15.796Z,40.87
2022-12-15T07:16:57.110Z,36.27
2022-12-15T07:18:28.590Z,35.11
2022-12-15T07:20:00.251Z,33.89
2022-12-15T07:21:32.089Z,33.83
2022-12-15T07:23:05.280Z,34.13
2022-12-15T07:24:36.816Z,36.70
2022-12-15T07:26:11.592Z,34.40
2022-12-15T07:27:43.805Z,36.38
2022-12-15T07:29:21.097Z,33.73
2022-12-15T07:31:07.729Z,33.87
2022-12-15T07:32:39.799Z,36.32
2022-12-15T07:34:11.157Z,33.98
2022-12-15T07:35:42.790Z,32.04
2022-12-15T07:37:14.158Z,34.61
2022-12-15T07:38:50.558Z,32.12
2022-12-15T07:40:22.937Z,32.62
2022-12-15T07:41:59.526Z,34.82
2022-12-15T07:43:31.519Z,62.08
2022-12-15T07:45:30.055Z,43.37
2022-12-15T07:47:02.557Z,35.02
2022-12-15T07:49:12.223Z,33.79
2022-12-15T07:50:50.315Z,35.16
2022-12-15T07:52:45.438Z,33.36
2022-12-15T07:54:26.963Z,34.75
2022-12-15T07:56:07.337Z,34.20
2022-12-15T07:57:40.545Z,32.71
2022-12-15T07:59:39.178Z,34.68
2022-12-15T08:01:10.834Z,33.99
2022-12-15T08:03:09.723Z,34.31
2022-12-15T08:04:41.486Z,33.21
2022-12-15T08:06:13.110Z,33.37
2022-12-15T08:07:44.704Z,34.44
2022-12-15T08:09:16.121Z,36.34
2022-12-15T08:10:47.564Z,36.28
2022-12-15T08:12:25.873Z,34.18
2022-12-15T08:14:03.194Z,36.35
2022-12-15T08:15:35.478Z,38.36
2022-12-15T08:17:16.861Z,35.34
2022-12-15T08:18:48.239Z,35.04
2022-12-15T08:20:30.775Z,35.18
2022-12-15T08:22:02.266Z,36.43
2022-12-15T08:23:34.363Z,35.82
2022-12-15T08:25:29.370Z,35.38
2022-12-15T08:27:15.058Z,35.39
2022-12-15T08:28:49.122Z,36.61
2022-12-15T08:30:25.725Z,40.35
2022-12-15T08:32:02.501Z,40.54
2022-12-15T08:33:46.189Z,44.57
2022-12-15T08:37:48.454Z,54.06
2022-12-15T08:39:33.447Z,41.60
2022-12-15T08:41:16.333Z,37.41
2022-12-15T08:42:48.611Z,34.64
2022-12-15T08:44:20.200Z,36.28
2022-12-15T08:45:51.947Z,35.92
2022-12-15T08:47:23.588Z,36.18
2022-12-15T08:48:55.039Z,35.47
2022-12-15T08:50:59.616Z,36.59
2022-12-15T08:52:31.103Z,35.85
2022-12-15T08:54:16.688Z,37.20
2022-12-15T08:55:48.356Z,35.04
2022-12-15T08:57:20.017Z,34.33
2022-12-15T08:58:51.439Z,35.42
2022-12-15T09:00:23.195Z,38.55
2022-12-15T09:01:54.767Z,37.10
2022-12-15T09:03:31.815Z,34.37
2022-12-15T09:05:03.854Z,36.75
2022-12-15T09:06:35.426Z,35.39
2022-12-15T09:08:11.976Z,33.88
2022-12-15T09:09:43.740Z,33.85
2022-12-15T09:11:15.301Z,33.88
2022-12-15T09:12:47.299Z,34.88
2022-12-15T09:14:22.729Z,35.10
2022-12-15T09:16:09.798Z,32.89
2022-12-15T09:17:42.205Z,34.88
2022-12-15T09:19:13.618Z,34.91
2022-12-15T09:20:45.313Z,36.03
2022-12-15T09:22:16.667Z,35.44
2022-12-15T09:23:48.148Z,36.25
2022-12-15T09:25:19.597Z,34.92
2022-12-15T09:26:51.384Z,34.98
2022-12-15T09:28:22.790Z,34.27
2022-12-15T09:29:54.613Z,34.88
2022-12-15T09:31:26.604Z,33.65
2022-12-15T09:32:58.392Z,35.37
2022-12-15T09:34:29.666Z,34.64
2022-12-15T09:36:01.554Z,34.80
2022-12-15T09:37:33.135Z,35.94
2022-12-15T09:39:04.665Z,35.47
2022-12-15T09:40:36.164Z,35.60
2022-12-15T09:42:07.582Z,47.53
2022-12-15T09:43:44.602Z,63.90
2022-12-15T09:45:18.398Z,53.78
2022-12-15T09:46:54.859Z,37.36
2022-12-15T09:48:26.400Z,37.25
2022-12-15T09:49:57.778Z,34.84
2022-12-15T09:51:29.455Z,35.30
2022-12-15T09:53:01.269Z,33.87
2022-12-15T09:54:32.926Z,35.59
2022-12-15T09:56:04.274Z,34.03
2022-12-15T09:57:35.774Z,34.68
2022-12-15T09:59:07.127Z,34.09
2022-12-15T10:00:38.506Z,32.80
2022-12-15T10:02:10.313Z,36.20
2022-12-15T10:03:41.769Z,36.19
2022-12-15T10:05:13.254Z,32.38
2022-12-15T10:06:44.962Z,36.04
2022-12-15T10:08:21.926Z,33.14
2022-12-15T10:09:53.388Z,33.70
2022-12-15T10:11:24.925Z,35.84
2022-12-15T10:13:02.086Z,34.49
2022-12-15T10:14:34.061Z,32.69
2022-12-15T10:16:05.341Z,32.36
2022-12-15T10:17:36.951Z,33.88
2022-12-15T10:19:08.279Z,33.79
2022-12-15T10:20:39.576Z,31.90
2022-12-15T10:22:11.254Z,31.83
2022-12-15T10:23:43.190Z,33.43
2022-12-15T10:25:14.642Z,31.75
2022-12-15T10:26:45.825Z,35.98
2022-12-15T10:28:17.549Z,31.85
2022-12-15T10:29:50.881Z,32.15
2022-12-15T15:04:39.990Z,41.29
2022-12-15T15:06:12.174Z,39.78
2022-12-15T15:07:43.914Z,41.97
2022-12-15T15:09:15.187Z,44.96
2022-12-15T15:10:46.726Z,42.44
2022-12-15T15:12:18.167Z,42.29
2022-12-15T15:13:49.894Z,39.54
2022-12-15T15:15:21.393Z,41.56
2022-12-15T15:16:52.939Z,39.99
2022-12-15T15:18:24.701Z,39.01
2022-12-15T15:19:56.196Z,41.40
2022-12-15T15:21:37.590Z,39.25
2022-12-15T15:23:10.103Z,39.37
2022-12-15T15:24:41.664Z,42.22
2022-12-15T15:26:13.047Z,41.21
2022-12-15T15:27:44.424Z,40.72
2022-12-15T15:29:16.088Z,40.56
2022-12-15T15:30:48.739Z,39.10
2022-12-15T15:32:20.464Z,43.17
2022-12-15T15:33:52.020Z,43.24
2022-12-15T15:35:23.500Z,41.09
2022-12-15T15:36:55.217Z,39.53
2022-12-15T15:38:26.786Z,42.39
2022-12-15T15:39:58.173Z,43.86
2022-12-15T15:41:40.979Z,41.84
2022-12-15T15:43:12.609Z,41.90
2022-12-15T15:44:44.868Z,40.04
2022-12-15T15:46:16.632Z,44.29
2022-12-15T15:47:48.012Z,44.38
2022-12-15T15:49:19.543Z,43.51
2022-12-15T15:50:50.955Z,44.82
2022-12-15T15:52:22.229Z,48.89
2022-12-15T15:53:53.711Z,45.84
2022-12-15T15:55:25.101Z,47.52
2022-12-15T15:56:56.476Z,46.16
2022-12-15T15:58:27.982Z,46.06
2022-12-15T15:59:59.439Z,47.14
2022-12-15T16:01:30.757Z,49.50
2022-12-15T16:03:02.197Z,46.80
2022-12-15T16:04:33.742Z,47.14
2022-12-15T16:06:05.019Z,44.97
2022-12-15T16:07:36.613Z,44.40
2022-12-15T16:09:08.001Z,43.45
2022-12-15T16:10:39.441Z,46.30
2022-12-15T16:14:08.221Z,50.01
2022-12-15T16:15:39.685Z,51.17
2022-12-15T16:17:34.252Z,49.90
2022-12-15T16:19:05.778Z,49.69
2022-12-15T16:20:37.533Z,51.97
2022-12-15T16:22:09.244Z,51.16
2022-12-15T16:23:40.912Z,47.55
2022-12-15T16:25:12.286Z,50.77
2022-12-15T16:26:43.921Z,51.08
2022-12-15T16:28:15.478Z,49.58
2022-12-15T16:29:47.138Z,46.74
2022-12-15T16:31:18.798Z,48.59
2022-12-15T16:32:50.044Z,46.92
2022-12-15T16:34:21.567Z,50.09
2022-12-15T16:36:02.852Z,49.88
2022-12-15T16:37:39.342Z,50.26
2022-12-15T16:39:26.352Z,52.44
2022-12-15T16:40:57.954Z,53.60
2022-12-15T16:42:29.671Z,53.35
2022-12-15T16:44:01.251Z,54.22
2022-12-15T16:45:32.851Z,53.50
2022-12-15T16:47:04.324Z,52.94
2022-12-15T16:48:36.490Z,50.44
2022-12-15T16:50:08.670Z,53.36
2022-12-15T16:51:40.060Z,51.42
2022-12-15T16:53:11.608Z,50.93
2022-12-15T16:54:43.154Z,51.93
2022-12-15T16:56:14.764Z,51.59
2022-12-15T16:57:46.036Z,54.62
2022-12-15T16:59:32.457Z,50.92
2022-12-15T17:01:05.492Z,50.08
2022-12-15T17:02:37.188Z,53.54
2022-12-15T17:04:08.827Z,56.11
2022-12-15T17:05:40.516Z,54.41
2022-12-15T17:07:16.369Z,51.68
2022-12-15T17:08:51.303Z,51.12
2022-12-15T17:10:22.676Z,52.27
2022-12-15T17:11:54.087Z,54.28
2022-12-15T17:13:28.742Z,54.74
2022-12-15T17:15:05.191Z,62.44
2022-12-15T17:16:46.557Z,64.35
2022-12-15T17:18:18.036Z,64.24
2022-12-15T17:20:27.519Z,67.00
2022-12-15T17:21:59.888Z,67.81
2022-12-15T17:23:41.654Z,81.70
2022-12-15T17:25:13.643Z,76.66
2022-12-15T17:27:05.387Z,68.91
2022-12-15T17:28:37.144Z,66.34
2022-12-15T17:30:08.650Z,68.46
2022-12-15T17:32:09.678Z,68.39
2022-12-15T17:33:42.534Z,67.62
2022-12-15T17:35:13.761Z,64.87
2022-12-15T17:36:44.876Z,67.31
2022-12-15T17:38:16.423Z,67.23
2022-12-15T17:39:47.878Z,66.89
2022-12-15T17:41:59.220Z,69.22
2022-12-15T17:43:35.620Z,90.86
2022-12-15T17:45:07.710Z,85.05
2022-12-15T17:46:39.540Z,82.14
2022-12-15T17:48:23.535Z,82.01
2022-12-15T17:49:55.164Z,80.29
2022-12-15T17:51:26.800Z,76.20
2022-12-15T17:52:58.482Z,74.95
2022-12-15T17:54:30.055Z,76.47
2022-12-15T17:56:01.539Z,74.99
2022-12-15T17:57:33.468Z,71.35
2022-12-15T17:59:06.907Z,70.06
2022-12-15T18:00:56.032Z,68.46
2022-12-15T18:02:28.709Z,66.65
2022-12-15T18:04:00.869Z,67.00
2022-12-15T18:05:32.928Z,66.57
2022-12-15T18:07:04.157Z,65.92
2022-12-15T18:08:35.744Z,68.08
2022-12-15T18:10:07.330Z,66.80
2022-12-15T18:11:39.137Z,67.10
2022-12-15T18:13:11.119Z,71.44
2022-12-15T18:14:42.778Z,68.82
2022-12-15T18:16:21.117Z,73.37
2022-12-15T18:17:52.938Z,75.88
2022-12-15T18:19:25.647Z,77.76
2022-12-15T18:20:58.707Z,82.12
2022-12-15T18:22:31.356Z,81.44
2022-12-15T18:24:23.359Z,80.72
2022-12-15T18:25:59.666Z,81.63
2022-12-15T18:27:35.973Z,78.73
2022-12-15T18:29:08.030Z,77.48
2022-12-15T18:30:49.688Z,71.52
2022-12-15T18:32:21.446Z,68.58
2022-12-15T18:33:52.916Z,74.28
2022-12-15T18:35:24.819Z,75.94
2022-12-15T18:36:56.548Z,70.62
2022-12-15T18:38:28.115Z,70.84
2022-12-15T18:40:09.987Z,73.16
2022-12-15T18:41:46.592Z,75.48
2022-12-15T18:43:23.500Z,85.82
2022-12-15T18:44:55.285Z,94.00
2022-12-15T18:46:44.649Z,88.68
2022-12-15T18:50:45.653Z,83.37
2022-12-15T18:52:17.565Z,83.62
2022-12-15T18:53:49.429Z,82.47
2022-12-15T18:55:21.069Z,81.51
2022-12-15T18:56:52.675Z,84.05
2022-12-15T18:58:26.151Z,85.46
2022-12-15T19:00:04.511Z,83.81
2022-12-15T19:01:36.131Z,79.62
2022-12-15T19:03:17.480Z,82.07
2022-12-15T19:04:59.745Z,83.56
2022-12-15T19:06:31.204Z,81.08
2022-12-15T19:08:10.373Z,79.94
2022-12-15T19:09:41.833Z,86.53
2022-12-15T19:11:23.946Z,87.60
2022-12-15T19:13:33.065Z,85.86
2022-12-15T19:15:16.934Z,80.95
2022-12-15T19:16:54.674Z,78.12
2022-12-15T19:18:26.623Z,84.69
2022-12-15T19:19:58.301Z,83.84
2022-12-15T19:21:49.767Z,84.96
2022-12-15T19:23:22.869Z,85.50
2022-12-15T19:25:04.821Z,81.39
2022-12-15T19:26:36.719Z,75.43
2022-12-15T19:28:34.873Z,75.94
2022-12-15T19:30:06.596Z,78.76
2022-12-15T19:31:53.135Z,80.84
2022-12-15T19:33:24.788Z,80.40
2022-12-15T19:34:56.515Z,79.70
2022-12-15T19:36:32.259Z,74.95
2022-12-15T19:38:06.915Z,74.53
2022-12-15T19:39:59.796Z,82.09
2022-12-15T19:41:31.413Z,79.80
2022-12-15T19:43:03.375Z,78.37
2022-12-15T19:44:36.383Z,83.26
2022-12-15T19:46:08.052Z,79.68
2022-12-15T19:47:39.690Z,75.96
2022-12-15T19:49:11.266Z,78.07
2022-12-15T19:50:42.638Z,81.53
2022-12-15T19:52:18.974Z,80.58
2022-12-15T19:53:50.656Z,74.81
2022-12-15T19:55:22.223Z,77.53
2022-12-15T19:56:53.949Z,73.85
2022-12-15T19:58:28.078Z,80.11
2022-12-15T19:59:59.920Z,82.12
2022-12-15T20:01:32.165Z,78.47
2022-12-15T20:03:03.960Z,78.41
2022-12-15T20:04:36.909Z,82.56
2022-12-15T20:06:08.499Z,80.60
2022-12-15T20:07:39.863Z,79.17
2022-12-15T20:09:11.306Z,77.60
2022-12-15T20:10:43.198Z,78.48
2022-12-15T20:12:35.059Z,74.25
2022-12-15T20:14:06.538Z,77.77
2022-12-15T20:15:38.026Z,77.16
2022-12-15T20:17:09.444Z,80.08
2022-12-15T20:18:41.103Z,84.31
2022-12-15T20:20:12.623Z,90.48
2022-12-15T20:21:44.299Z,80.53
2022-12-15T20:23:15.766Z,82.44
2022-12-15T20:24:47.509Z,79.79
2022-12-15T20:26:18.982Z,82.46
2022-12-15T20:27:50.527Z,83.70
2022-12-15T20:29:21.963Z,76.12
2022-12-15T20:30:53.384Z,75.20
2022-12-15T20:32:24.890Z,75.93
2022-12-15T20:33:56.723Z,80.33
2022-12-15T20:35:28.089Z,93.52
2022-12-15T20:36:59.505Z,93.53
2022-12-15T20:38:30.906Z,84.06
2022-12-15T20:40:02.521Z,82.03
2022-12-15T20:41:34.323Z,77.93
2022-12-15T20:43:05.789Z,73.27
2022-12-15T20:44:37.407Z,74.37
2022-12-15T20:46:08.907Z,69.36
2022-12-15T20:47:40.536Z,69.33
2022-12-15T20:49:11.881Z,68.56
2022-12-15T20:50:43.489Z,72.58
2022-12-15T20:52:14.863Z,77.79
2022-12-15T20:53:46.445Z,77.21
2022-12-15T20:55:17.986Z,81.37
2022-12-15T20:56:49.465Z,73.82
2022-12-15T20:58:20.846Z,75.07
2022-12-15T20:59:52.218Z,76.38
2022-12-15T21:01:23.856Z,75.30
2022-12-15T21:02:56.036Z,70.68
2022-12-15T21:04:27.925Z,70.53
2022-12-15T21:05:59.589Z,74.70
2022-12-15T21:07:30.952Z,75.29
2022-12-15T21:09:02.286Z,82.84
2022-12-15T21:10:38.753Z,86.81
2022-12-15T21:12:10.229Z,81.76
2022-12-15T21:13:41.790Z,76.74
2022-12-15T21:15:13.066Z,74.42
2022-12-15T21:16:57.749Z,73.18
2022-12-15T21:19:10.761Z,71.85
2022-12-15T21:20:50.265Z,77.13
2022-12-15T21:22:22.899Z,73.89
2022-12-15T21:23:54.480Z,70.04
2022-12-15T21:25:26.030Z,72.92
2022-12-15T21:26:57.739Z,75.58
2022-12-15T21:28:29.404Z,72.71
2022-12-15T21:30:01.162Z,71.94
2022-12-15T21:31:32.721Z,93.29
2022-12-15T21:33:17.094Z,184.65
2022-12-15T21:34:48.691Z,117.62
2022-12-15T21:36:20.291Z,91.28
2022-12-15T21:37:51.849Z,87.59
2022-12-15T21:39:23.175Z,85.04
2022-12-15T21:40:59.273Z,83.64
2022-12-15T21:42:31.161Z,84.49
2022-12-15T21:44:02.701Z,73.68
2022-12-15T21:45:34.399Z,68.29
2022-12-15T21:47:06.119Z,61.72
2022-12-15T21:48:37.584Z,62.28
2022-12-15T21:52:01.360Z,66.10
2022-12-15T21:53:32.918Z,65.44
2022-12-15T21:55:04.664Z,68.72
2022-12-15T21:56:36.230Z,74.56
2022-12-15T21:58:07.962Z,71.23
2022-12-15T21:59:39.409Z,75.41
2022-12-15T22:01:12.188Z,74.71
2022-12-15T22:04:54.774Z,76.08
2022-12-15T22:06:26.776Z,75.72
2022-12-15T22:07:58.350Z,74.51
2022-12-15T22:09:30.588Z,73.88
2022-12-15T22:11:06.921Z,74.90
2022-12-15T22:13:03.510Z,71.42
2022-12-15T22:14:34.825Z,78.30
2022-12-15T22:16:11.572Z,79.95
2022-12-15T22:17:43.129Z,78.22
2022-12-15T22:19:24.383Z,77.41
2022-12-15T22:20:55.803Z,70.91
2022-12-15T22:22:31.781Z,72.11
2022-12-15T22:24:03.558Z,72.49
2022-12-15T22:25:34.869Z,70.67
2022-12-15T22:27:06.443Z,73.33
2022-12-15T22:28:42.986Z,74.37
2022-12-15T22:30:26.355Z,67.25
2022-12-15T22:31:57.599Z,71.42
2022-12-15T22:33:29.127Z,72.14
2022-12-15T22:35:00.668Z,70.58
2022-12-15T22:36:31.932Z,72.90
2022-12-15T22:38:03.271Z,67.35
2022-12-15T22:39:34.733Z,65.79
2022-12-15T22:41:06.293Z,65.70
2022-12-15T22:42:38.531Z,65.86
2022-12-15T22:44:10.108Z,67.95
2022-12-15T22:45:42.924Z,68.09
2022-12-15T22:47:14.450Z,69.86
2022-12-15T22:48:46.377Z,67.18
2022-12-15T22:50:18.149Z,69.78
2022-12-15T22:51:49.584Z,89.29
2022-12-15T22:53:21.835Z,103.24
2022-12-15T22:54:53.395Z,81.50
2022-12-15T22:56:26.563Z,77.21
2022-12-15T22:57:58.178Z,77.91
2022-12-15T22:59:29.723Z,78.71
2022-12-15T23:01:01.212Z,77.28
2022-12-15T23:02:32.632Z,75.29
2022-12-15T23:04:04.098Z,72.08
2022-12-15T23:05:35.645Z,75.87
2022-12-15T23:07:07.188Z,81.66
2022-12-15T23:09:03.405Z,79.50
2022-12-15T23:10:35.097Z,78.44
2022-12-15T23:12:06.844Z,81.44
2022-12-15T23:13:38.484Z,68.71
2022-12-15T23:15:10.703Z,72.83
2022-12-15T23:16:58.082Z,68.97
2022-12-15T23:18:29.653Z,68.94
2022-12-15T23:20:01.160Z,70.16
2022-12-15T23:21:32.536Z,69.45
2022-12-15T23:23:04.703Z,68.98
2022-12-15T23:24:36.312Z,69.04
2022-12-15T23:26:07.756Z,68.96
2022-12-15T23:27:39.880Z,71.31
2022-12-15T23:29:11.462Z,68.02
2022-12-15T23:30:42.878Z,72.07
2022-12-15T23:32:14.418Z,72.98
2022-12-15T23:33:45.969Z,74.85
2022-12-15T23:35:17.405Z,80.94
2022-12-15T23:36:49.052Z,78.30
2022-12-15T23:38:20.405Z,77.85
2022-12-15T23:39:52.073Z,79.27
2022-12-15T23:41:23.588Z,83.06
2022-12-15T23:42:55.271Z,80.45
2022-12-15T23:44:26.825Z,81.80
2022-12-15T23:45:58.487Z,75.13
2022-12-15T23:47:30.103Z,72.78
2022-12-15T23:49:01.660Z,76.00
2022-12-15T23:50:32.998Z,76.24
2022-12-15T23:52:04.521Z,76.14
2022-12-15T23:53:36.221Z,75.61
2022-12-15T23:55:07.533Z,72.22
2022-12-15T23:56:40.000Z,71.80
2022-12-15T23:58:11.351Z,72.74
2022-12-15T23:59:42.695Z,71.63
